Time,TemperatureF,DewpointF,PressureIn,WindDirection,WindDirectionDegrees,WindSpeedMPH,WindSpeedGustMPH,Humidity,HourlyPrecipIn,Conditions,Clouds,dailyrainin,SoftwareType,DateUTC
2013-02-23 00:01:00,34.7,27.8,29.64,SSW,202,12.1,12.1,76,0.00,,,0.00,LWC V1.12 B30,2013-02-23 08:01:00,
2013-02-23 00:06:00,34.5,27.6,29.63,South,180,5.1,7.6,76,0.00,,,0.00,LWC V1.12 B30,2013-02-23 08:06:00,
2013-02-23 00:11:00,34.5,27.3,29.64,WSW,247,10.1,16.5,75,0.00,,,0.00,LWC V1.12 B30,2013-02-23 08:11:00,
2013-02-23 00:16:00,34.3,27.1,29.64,SW,225,8.9,11.2,75,0.00,,,0.00,LWC V1.12 B30,2013-02-23 08:16:00,
2013-02-23 00:21:00,34.3,27.1,29.65,SSW,202,8.1,9.2,75,0.00,,,0.00,LWC V1.12 B30,2013-02-23 08:21:00,
2013-02-23 00:26:00,34.2,27.0,29.65,SW,225,7.8,10.7,75,0.00,,,0.00,LWC V1.12 B30,2013-02-23 08:26:00,
2013-02-23 00:31:00,34.0,26.8,29.65,South,180,11.6,11.6,75,0.00,,,0.00,LWC V1.12 B30,2013-02-23 08:31:00,
2013-02-23 00:36:00,33.8,26.6,29.64,SW,225,10.7,15.0,75,0.00,,,0.00,LWC V1.12 B30,2013-02-23 08:36:00,
2013-02-23 00:41:00,33.6,26.4,29.64,SSW,202,9.4,14.5,75,0.00,,,0.00,LWC V1.12 B30,2013-02-23 08:41:00,
2013-02-23 00:46:00,33.6,26.4,29.65,SSW,202,10.1,14.1,75,0.00,,,0.00,LWC V1.12 B30,2013-02-23 08:46:00,
2013-02-23 00:52:00,33.4,26.6,29.64,SSW,202,6.7,10.1,76,0.00,,,0.00,LWC V1.12 B30,2013-02-23 08:52:00,
2013-02-23 00:57:00,33.3,26.4,29.63,South,180,9.6,12.5,76,0.00,,,0.00,LWC V1.12 B30,2013-02-23 08:57:00,
2013-02-23 01:02:00,33.1,26.3,29.64,SSW,202,5.6,9.8,76,0.00,,,0.00,LWC V1.12 B30,2013-02-23 09:02:00,
2013-02-23 01:07:00,33.1,26.3,29.64,SSW,202,8.3,11.9,76,0.00,,,0.00,LWC V1.12 B30,2013-02-23 09:07:00,
2013-02-23 01:12:00,33.1,26.3,29.65,SSW,202,16.5,16.5,76,0.00,,,0.00,LWC V1.12 B30,2013-02-23 09:12:00,
2013-02-23 01:17:00,33.1,26.3,29.65,SSE,157,8.1,11.9,76,0.00,,,0.00,LWC V1.12 B30,2013-02-23 09:17:00,
2013-02-23 01:22:00,32.9,26.1,29.65,SSW,202,17.4,17.4,76,0.00,,,0.00,LWC V1.12 B30,2013-02-23 09:22:00,
2013-02-23 01:27:00,32.9,26.1,29.65,South,180,4.9,13.0,76,0.00,,,0.00,LWC V1.12 B30,2013-02-23 09:27:00,
2013-02-23 01:32:00,32.7,26.0,29.65,SSE,157,1.6,7.8,76,0.00,,,0.00,LWC V1.12 B30,2013-02-23 09:32:00,
2013-02-23 01:37:00,32.7,26.0,29.65,SSE,157,8.5,28.4,76,0.00,,,0.00,LWC V1.12 B30,2013-02-23 09:37:00,
2013-02-23 01:42:00,32.7,26.0,29.65,SE,135,5.1,13.4,76,0.00,,,0.00,LWC V1.12 B30,2013-02-23 09:42:00,
2013-02-23 01:47:00,32.5,25.8,29.65,SW,225,8.1,15.2,76,0.00,,,0.00,LWC V1.12 B30,2013-02-23 09:47:00,
2013-02-23 01:52:00,32.5,25.5,29.65,SSW,202,9.8,15.4,75,0.00,,,0.00,LWC V1.12 B30,2013-02-23 09:52:00,
2013-02-23 01:57:00,32.5,25.5,29.65,SSW,202,6.3,12.3,75,0.00,,,0.00,LWC V1.12 B30,2013-02-23 09:57:00,
2013-02-23 02:02:00,32.5,25.5,29.65,SSW,202,5.4,10.3,75,0.00,,,0.00,LWC V1.12 B30,2013-02-23 10:02:00,
2013-02-23 02:07:00,32.5,25.5,29.65,WSW,247,4.9,15.2,75,0.00,,,0.00,LWC V1.12 B30,2013-02-23 10:07:00,
2013-02-23 02:12:00,32.5,25.5,29.66,SSW,202,9.4,13.0,75,0.00,,,0.00,LWC V1.12 B30,2013-02-23 10:12:00,
2013-02-23 02:17:00,32.5,25.5,29.66,South,180,5.1,13.0,75,0.00,,,0.00,LWC V1.12 B30,2013-02-23 10:17:00,
2013-02-23 02:22:00,32.5,25.5,29.66,South,180,7.6,12.3,75,0.00,,,0.00,LWC V1.12 B30,2013-02-23 10:22:00,
2013-02-23 02:27:00,32.4,25.3,29.66,SSE,157,2.2,12.7,75,0.00,,,0.00,LWC V1.12 B30,2013-02-23 10:27:00,
2013-02-23 02:32:00,32.2,25.1,29.66,SSE,157,4.5,11.2,75,0.00,,,0.00,LWC V1.12 B30,2013-02-23 10:32:00,
2013-02-23 02:38:00,32.2,25.1,29.67,SSW,202,9.6,11.9,74,0.00,,,0.00,LWC V1.12 B30,2013-02-23 10:38:00,
2013-02-23 02:43:00,32.2,24.8,29.67,SW,225,3.6,7.2,74,0.00,,,0.00,LWC V1.12 B30,2013-02-23 10:43:00,
2013-02-23 02:48:00,32.2,25.1,29.66,South,180,5.1,5.1,75,0.00,,,0.00,LWC V1.12 B30,2013-02-23 10:48:00,
2013-02-23 02:53:00,32.2,25.1,29.67,South,180,5.1,5.1,75,0.00,,,0.00,LWC V1.12 B30,2013-02-23 10:53:00,
2013-02-23 02:58:00,31.8,24.8,29.67,ESE,112,4.7,5.4,75,0.00,,,0.00,LWC V1.12 B30,2013-02-23 10:58:00,
2013-02-23 03:03:00,31.8,24.8,29.68,SSE,157,3.1,6.3,75,0.00,,,0.00,LWC V1.12 B30,2013-02-23 11:03:00,
2013-02-23 03:08:00,31.8,24.8,29.68,SSE,157,7.2,7.2,75,0.00,,,0.00,LWC V1.12 B30,2013-02-23 11:08:00,
2013-02-23 03:13:00,31.6,24.6,29.67,SSE,157,4.0,9.4,75,0.00,,,0.00,LWC V1.12 B30,2013-02-23 11:13:00,
2013-02-23 03:18:00,31.6,24.9,29.68,SSE,157,11.0,11.0,76,0.00,,,0.00,LWC V1.12 B30,2013-02-23 11:18:00,
2013-02-23 03:23:00,31.3,24.6,29.68,SE,135,2.5,7.6,76,0.00,,,0.00,LWC V1.12 B30,2013-02-23 11:23:00,
2013-02-23 03:28:00,31.3,24.6,29.68,SE,135,4.0,6.0,76,0.00,,,0.00,LWC V1.12 B30,2013-02-23 11:28:00,
2013-02-23 03:33:00,31.3,24.6,29.67,South,180,8.7,8.7,76,0.00,,,0.00,LWC V1.12 B30,2013-02-23 11:33:00,
2013-02-23 03:39:00,31.1,24.4,29.68,SSW,202,2.9,6.9,76,0.00,,,0.00,LWC V1.12 B30,2013-02-23 11:39:00,
2013-02-23 03:44:00,30.9,24.2,29.68,South,180,5.8,9.8,76,0.00,,,0.00,LWC V1.12 B30,2013-02-23 11:44:00,
2013-02-23 03:49:00,30.9,24.2,29.68,South,180,6.9,9.4,76,0.00,,,0.00,LWC V1.12 B30,2013-02-23 11:49:00,
2013-02-23 03:54:00,30.7,24.0,29.68,South,180,9.6,11.0,76,0.00,,,0.00,LWC V1.12 B30,2013-02-23 11:54:00,
2013-02-23 03:59:00,30.6,23.9,29.68,SE,135,6.5,6.5,76,0.00,,,0.00,LWC V1.12 B30,2013-02-23 11:59:00,
2013-02-23 04:04:00,30.6,23.9,29.68,SSE,157,9.4,9.4,76,0.00,,,0.00,LWC V1.12 B30,2013-02-23 12:04:00,
2013-02-23 04:09:00,30.6,23.9,29.68,SSW,202,12.7,12.7,76,0.00,,,0.00,LWC V1.12 B30,2013-02-23 12:09:00,
2013-02-23 04:14:00,30.4,23.7,29.68,SSW,202,8.1,15.7,76,0.00,,,0.00,LWC V1.12 B30,2013-02-23 12:14:00,
2013-02-23 04:19:00,30.4,23.7,29.69,South,180,10.3,13.0,76,0.00,,,0.00,LWC V1.12 B30,2013-02-23 12:19:00,
2013-02-23 04:24:00,30.4,23.7,29.70,South,180,5.6,6.9,76,0.00,,,0.00,LWC V1.12 B30,2013-02-23 12:24:00,
2013-02-23 04:29:00,30.2,23.5,29.70,SSE,157,14.3,14.3,76,0.00,,,0.00,LWC V1.12 B30,2013-02-23 12:29:00,
2013-02-23 04:34:00,30.0,23.6,29.69,South,180,5.4,11.9,77,0.00,,,0.00,LWC V1.12 B30,2013-02-23 12:34:00,
2013-02-23 04:39:00,30.0,23.6,29.69,SSE,157,10.5,11.2,77,0.00,,,0.00,LWC V1.12 B30,2013-02-23 12:39:00,
2013-02-23 04:45:00,30.0,23.6,29.70,South,180,4.2,10.1,77,0.00,,,0.00,LWC V1.12 B30,2013-02-23 12:45:00,
2013-02-23 04:50:00,30.0,23.6,29.70,SE,135,3.1,10.7,77,0.00,,,0.00,LWC V1.12 B30,2013-02-23 12:50:00,
2013-02-23 04:55:00,30.0,23.6,29.70,South,180,4.5,10.5,77,0.00,,,0.00,LWC V1.12 B30,2013-02-23 12:55:00,
2013-02-23 05:01:00,30.0,23.6,29.71,SE,135,5.8,8.1,77,0.00,,,0.00,LWC V1.12 B30,2013-02-23 13:01:00,
2013-02-23 05:06:00,30.0,24.0,29.71,SSE,157,6.0,10.1,78,0.00,,,0.00,LWC V1.12 B30,2013-02-23 13:06:00,
2013-02-23 05:11:00,30.0,24.0,29.72,SSW,202,12.1,13.4,78,0.00,,,0.00,LWC V1.12 B30,2013-02-23 13:11:00,
2013-02-23 05:16:00,30.0,24.0,29.72,SSE,157,7.4,13.9,78,0.00,,,0.00,LWC V1.12 B30,2013-02-23 13:16:00,
2013-02-23 05:21:00,30.0,24.0,29.72,South,180,5.4,13.4,78,0.00,,,0.00,LWC V1.12 B30,2013-02-23 13:21:00,
2013-02-23 05:26:00,30.0,24.0,29.72,SSE,157,8.5,11.9,78,0.00,,,0.00,LWC V1.12 B30,2013-02-23 13:26:00,
2013-02-23 05:31:00,30.0,24.0,29.73,SSE,157,11.2,14.3,78,0.00,,,0.00,LWC V1.12 B30,2013-02-23 13:31:00,
2013-02-23 05:36:00,30.0,24.0,29.73,South,180,6.9,9.8,78,0.00,,,0.00,LWC V1.12 B30,2013-02-23 13:36:00,
2013-02-23 05:42:00,30.2,24.2,29.73,South,180,10.3,11.4,78,0.00,,,0.00,LWC V1.12 B30,2013-02-23 13:42:00,
2013-02-23 05:47:00,30.2,24.2,29.73,South,180,9.2,11.9,78,0.00,,,0.00,LWC V1.12 B30,2013-02-23 13:47:00,
2013-02-23 05:52:00,30.4,24.3,29.74,SSW,202,7.2,9.6,78,0.00,,,0.00,LWC V1.12 B30,2013-02-23 13:52:00,
2013-02-23 05:57:00,30.4,24.3,29.75,South,180,7.6,8.1,78,0.00,,,0.00,LWC V1.12 B30,2013-02-23 13:57:00,
2013-02-23 06:02:00,30.4,24.3,29.75,SSW,202,4.2,5.8,78,0.00,,,0.00,LWC V1.12 B30,2013-02-23 14:02:00,
2013-02-23 06:07:00,30.4,24.3,29.75,South,180,3.1,10.3,78,0.00,,,0.00,LWC V1.12 B30,2013-02-23 14:07:00,
2013-02-23 06:12:00,30.4,24.3,29.75,South,180,8.5,9.8,78,0.00,,,0.00,LWC V1.12 B30,2013-02-23 14:12:00,
2013-02-23 06:17:00,30.4,24.3,29.75,SSE,157,3.8,7.8,78,0.00,,,0.00,LWC V1.12 B30,2013-02-23 14:17:00,
2013-02-23 06:22:00,30.4,24.3,29.76,South,180,3.6,7.4,78,0.00,,,0.00,LWC V1.12 B30,2013-02-23 14:22:00,
2013-02-23 06:27:00,30.4,24.3,29.76,SSE,157,0.0,5.6,78,0.00,,,0.00,LWC V1.12 B30,2013-02-23 14:27:00,
2013-02-23 06:32:00,30.4,24.3,29.76,South,180,2.5,9.6,78,0.00,,,0.00,LWC V1.12 B30,2013-02-23 14:32:00,
2013-02-23 06:37:00,30.4,24.3,29.76,South,180,10.3,14.3,78,0.00,,,0.00,LWC V1.12 B30,2013-02-23 14:37:00,
2013-02-23 06:42:00,30.4,24.3,29.76,SE,135,10.7,11.9,78,0.00,,,0.00,LWC V1.12 B30,2013-02-23 14:42:00,
2013-02-23 06:47:00,30.4,24.3,29.76,SE,135,11.4,14.5,78,0.00,,,0.00,LWC V1.12 B30,2013-02-23 14:47:00,
2013-02-23 06:52:00,30.4,24.3,29.77,South,180,3.1,13.0,78,0.00,,,0.00,LWC V1.12 B30,2013-02-23 14:52:00,
2013-02-23 06:57:00,30.2,24.2,29.78,South,180,7.2,19.7,78,0.00,,,0.00,LWC V1.12 B30,2013-02-23 14:57:00,
2013-02-23 07:02:00,30.4,24.3,29.77,SSE,157,9.6,10.1,78,0.00,,,0.00,LWC V1.12 B30,2013-02-23 15:02:00,
2013-02-23 07:07:00,30.4,24.3,29.78,SW,225,6.7,9.4,78,0.00,,,0.00,LWC V1.12 B30,2013-02-23 15:07:00,
2013-02-23 07:12:00,30.0,24.3,29.79,ESE,112,15.7,15.7,79,0.00,,,0.00,LWC V1.12 B30,2013-02-23 15:12:00,
2013-02-23 07:17:00,30.0,24.3,29.79,SE,135,12.3,16.8,79,0.00,,,0.00,LWC V1.12 B30,2013-02-23 15:17:00,
2013-02-23 07:22:00,30.0,24.3,29.80,SE,135,9.8,11.2,79,0.00,,,0.00,LWC V1.12 B30,2013-02-23 15:22:00,
2013-02-23 07:27:00,30.0,24.3,29.81,SSW,202,7.2,9.4,79,0.00,,,0.00,LWC V1.12 B30,2013-02-23 15:27:00,
2013-02-23 07:33:00,30.0,24.3,29.81,SE,135,13.4,13.4,79,0.00,,,0.00,LWC V1.12 B30,2013-02-23 15:33:00,
2013-02-23 07:38:00,30.0,24.6,29.81,South,180,7.4,8.5,80,0.00,,,0.00,LWC V1.12 B30,2013-02-23 15:38:00,
2013-02-23 07:43:00,30.0,24.6,29.81,South,180,6.3,18.1,80,0.00,,,0.00,LWC V1.12 B30,2013-02-23 15:43:00,
2013-02-23 07:48:00,30.0,24.6,29.82,SSE,157,17.2,17.2,80,0.00,,,0.00,LWC V1.12 B30,2013-02-23 15:48:00,
2013-02-23 07:53:00,30.0,24.6,29.82,SE,135,7.4,10.7,80,0.00,,,0.00,LWC V1.12 B30,2013-02-23 15:53:00,
2013-02-23 07:58:00,30.0,24.6,29.83,South,180,6.5,11.2,80,0.00,,,0.00,LWC V1.12 B30,2013-02-23 15:58:00,
2013-02-23 08:03:00,30.0,24.6,29.83,SSE,157,8.7,8.7,80,0.00,,,0.00,LWC V1.12 B30,2013-02-23 16:03:00,
2013-02-23 08:08:00,30.0,24.6,29.83,SE,135,7.4,12.1,80,0.00,,,0.00,LWC V1.12 B30,2013-02-23 16:08:00,
2013-02-23 08:13:00,30.0,24.6,29.83,SSE,157,7.2,14.1,80,0.00,,,0.00,LWC V1.12 B30,2013-02-23 16:13:00,
2013-02-23 08:18:00,30.2,24.8,29.85,SE,135,7.8,10.5,80,0.00,,,0.00,LWC V1.12 B30,2013-02-23 16:18:00,
2013-02-23 08:23:00,30.6,25.2,29.85,SSW,202,8.5,8.5,80,0.00,,,0.00,LWC V1.12 B30,2013-02-23 16:23:00,
2013-02-23 08:28:00,30.7,25.3,29.86,SSE,157,7.6,11.6,80,0.00,,,0.00,LWC V1.12 B30,2013-02-23 16:28:00,
2013-02-23 08:33:00,31.1,25.7,29.86,South,180,5.4,14.1,80,0.00,,,0.00,LWC V1.12 B30,2013-02-23 16:33:00,
2013-02-23 08:38:00,31.6,26.2,29.86,SE,135,11.0,11.0,80,0.00,,,0.00,LWC V1.12 B30,2013-02-23 16:38:00,
2013-02-23 08:43:00,31.6,26.1,29.86,South,180,9.2,11.0,79,0.00,,,0.00,LWC V1.12 B30,2013-02-23 16:43:00,
2013-02-23 08:48:00,31.8,26.1,29.87,SSE,157,8.1,10.5,79,0.00,,,0.00,LWC V1.12 B30,2013-02-23 16:48:00,
2013-02-23 08:53:00,32.2,26.4,29.86,South,180,8.9,12.7,79,0.00,,,0.00,LWC V1.12 B30,2013-02-23 16:53:00,
2013-02-23 08:58:00,32.5,26.4,29.87,SSW,202,5.6,13.0,78,0.00,,,0.00,LWC V1.12 B30,2013-02-23 16:58:00,
2013-02-23 09:04:00,32.9,26.8,29.87,SE,135,4.9,9.4,78,0.00,,,0.00,LWC V1.12 B30,2013-02-23 17:04:00,
2013-02-23 09:09:00,33.4,26.8,29.87,South,180,6.9,9.8,77,0.00,,,0.00,LWC V1.12 B30,2013-02-23 17:09:00,
2013-02-23 09:14:00,33.6,27.1,29.88,ESE,112,3.8,7.2,77,0.00,,,0.00,LWC V1.12 B30,2013-02-23 17:14:00,
2013-02-23 09:19:00,34.2,27.3,29.88,SSW,202,8.7,12.7,76,0.00,,,0.00,LWC V1.12 B30,2013-02-23 17:19:00,
2013-02-23 09:24:00,34.5,27.6,29.88,South,180,5.8,13.4,76,0.00,,,0.00,LWC V1.12 B30,2013-02-23 17:24:00,
2013-02-23 09:29:00,34.9,27.7,29.89,SSW,202,8.7,10.7,75,0.00,,,0.00,LWC V1.12 B30,2013-02-23 17:29:00,
2013-02-23 09:34:00,34.9,27.4,29.90,ESE,112,6.9,9.2,74,0.00,,,0.00,LWC V1.12 B30,2013-02-23 17:34:00,
2013-02-23 09:39:00,35.4,27.9,29.90,SW,225,7.8,7.8,74,0.00,,,0.00,LWC V1.12 B30,2013-02-23 17:39:00,
2013-02-23 09:44:00,36.0,28.4,29.90,SSW,202,7.4,8.5,73,0.00,,,0.00,LWC V1.12 B30,2013-02-23 17:44:00,
2013-02-23 09:49:00,36.3,28.5,29.90,SSE,157,8.7,8.9,73,0.00,,,0.00,LWC V1.12 B30,2013-02-23 17:49:00,
2013-02-23 09:54:00,36.3,28.5,29.90,SSW,202,4.9,8.1,73,0.00,,,0.00,LWC V1.12 B30,2013-02-23 17:54:00,
2013-02-23 09:59:00,36.1,28.3,29.90,SSW,202,3.6,8.9,73,0.00,,,0.00,LWC V1.12 B30,2013-02-23 17:59:00,
2013-02-23 10:04:00,36.1,28.0,29.90,SSW,202,5.4,12.3,72,0.00,,,0.00,LWC V1.12 B30,2013-02-23 18:04:00,
2013-02-23 10:09:00,36.0,27.8,29.91,SE,135,8.5,11.9,72,0.00,,,0.00,LWC V1.12 B30,2013-02-23 18:09:00,
2013-02-23 10:14:00,36.0,27.8,29.91,SSE,157,4.9,6.5,72,0.00,,,0.00,LWC V1.12 B30,2013-02-23 18:14:00,
2013-02-23 10:19:00,36.1,28.0,29.91,SSE,157,9.2,9.2,72,0.00,,,0.00,LWC V1.12 B30,2013-02-23 18:19:00,
2013-02-23 10:25:00,36.3,28.1,29.91,SE,135,9.6,11.9,72,0.00,,,0.00,LWC V1.12 B30,2013-02-23 18:25:00,
2013-02-23 10:30:00,36.3,28.1,29.91,South,180,5.4,8.9,72,0.00,,,0.00,LWC V1.12 B30,2013-02-23 18:30:00,
2013-02-23 10:35:00,36.3,28.1,29.91,SSW,202,4.7,4.7,72,0.00,,,0.00,LWC V1.12 B30,2013-02-23 18:35:00,
2013-02-23 10:40:00,36.3,28.1,29.91,SSW,202,9.2,14.1,72,0.00,,,0.00,LWC V1.12 B30,2013-02-23 18:40:00,
2013-02-23 10:45:00,36.5,28.0,29.92,SSW,202,4.7,11.9,71,0.00,,,0.00,LWC V1.12 B30,2013-02-23 18:45:00,
2013-02-23 10:50:00,36.9,28.4,29.92,SSW,202,4.9,11.9,71,0.00,,,0.00,LWC V1.12 B30,2013-02-23 18:50:00,
2013-02-23 10:55:00,37.4,28.9,29.91,South,180,5.8,9.2,71,0.00,,,0.00,LWC V1.12 B30,2013-02-23 18:55:00,
2013-02-23 11:00:00,37.9,29.1,29.92,SSW,202,6.5,13.0,70,0.00,,,0.00,LWC V1.12 B30,2013-02-23 19:00:00,
2013-02-23 11:05:00,38.1,28.9,29.92,SSE,157,8.5,9.4,69,0.00,,,0.00,LWC V1.12 B30,2013-02-23 19:05:00,
2013-02-23 11:10:00,38.5,29.2,29.92,South,180,3.6,7.6,69,0.00,,,0.00,LWC V1.12 B30,2013-02-23 19:10:00,
2013-02-23 11:15:00,38.7,29.0,29.92,SW,225,1.6,7.8,68,0.00,,,0.00,LWC V1.12 B30,2013-02-23 19:15:00,
2013-02-23 11:20:00,38.8,29.1,29.92,South,180,6.9,11.4,68,0.00,,,0.00,LWC V1.12 B30,2013-02-23 19:20:00,
2013-02-23 11:25:00,38.7,28.6,29.93,South,180,8.5,15.2,67,0.00,,,0.00,LWC V1.12 B30,2013-02-23 19:25:00,
2013-02-23 11:30:00,38.8,29.1,29.93,South,180,7.6,8.5,68,0.00,,,0.00,LWC V1.12 B30,2013-02-23 19:30:00,
2013-02-23 11:35:00,38.8,29.1,29.92,SSW,202,8.7,13.6,68,0.00,,,0.00,LWC V1.12 B30,2013-02-23 19:35:00,
2013-02-23 11:40:00,39.0,28.9,29.93,SSW,202,11.4,11.4,67,0.00,,,0.00,LWC V1.12 B30,2013-02-23 19:40:00,
2013-02-23 11:45:00,39.0,28.9,29.93,South,180,9.6,10.1,67,0.00,,,0.00,LWC V1.12 B30,2013-02-23 19:45:00,
2013-02-23 11:50:00,39.2,29.1,29.92,South,180,10.3,11.4,67,0.00,,,0.00,LWC V1.12 B30,2013-02-23 19:50:00,
2013-02-23 11:55:00,39.4,29.2,29.93,SSE,157,7.2,7.2,67,0.00,,,0.00,LWC V1.12 B30,2013-02-23 19:55:00,
2013-02-23 12:00:00,39.7,29.6,29.93,SSW,202,3.4,5.6,67,0.00,,,0.00,LWC V1.12 B30,2013-02-23 20:00:00,
2013-02-23 12:05:00,39.9,29.8,29.93,South,180,8.7,10.3,67,0.00,,,0.00,LWC V1.12 B30,2013-02-23 20:05:00,
2013-02-23 12:10:00,39.9,29.0,29.93,SW,225,11.0,11.6,65,0.00,,,0.00,LWC V1.12 B30,2013-02-23 20:10:00,
2013-02-23 12:15:00,40.1,29.6,29.93,South,180,10.5,10.5,66,0.00,,,0.00,LWC V1.12 B30,2013-02-23 20:15:00,
2013-02-23 12:20:00,40.3,29.8,29.93,SSE,157,8.1,8.1,66,0.00,,,0.00,LWC V1.12 B30,2013-02-23 20:20:00,
2013-02-23 12:26:00,40.6,30.1,29.93,SSW,202,10.7,10.7,66,0.00,,,0.00,LWC V1.12 B30,2013-02-23 20:26:00,
2013-02-23 12:31:00,40.6,29.4,29.92,SSW,202,7.6,15.7,64,0.00,,,0.00,LWC V1.12 B30,2013-02-23 20:31:00,
2013-02-23 12:36:00,40.6,29.8,29.92,WSW,247,2.9,7.2,65,0.00,,,0.00,LWC V1.12 B30,2013-02-23 20:36:00,
2013-02-23 12:41:00,41.2,30.3,29.93,SSW,202,3.6,6.3,65,0.00,,,0.00,LWC V1.12 B30,2013-02-23 20:41:00,
2013-02-23 12:47:00,41.2,29.9,29.93,South,180,5.1,6.0,64,0.00,,,0.00,LWC V1.12 B30,2013-02-23 20:47:00,
2013-02-23 12:52:00,41.4,30.1,29.93,SSW,202,5.6,7.4,64,0.00,,,0.00,LWC V1.12 B30,2013-02-23 20:52:00,
2013-02-23 12:57:00,41.5,30.2,29.93,South,180,1.8,7.4,64,0.00,,,0.00,LWC V1.12 B30,2013-02-23 20:57:00,
2013-02-23 13:02:00,41.7,30.4,29.93,SSW,202,6.3,14.8,64,0.00,,,0.00,LWC V1.12 B30,2013-02-23 21:02:00,
2013-02-23 13:07:00,41.9,30.2,29.93,South,180,3.6,10.5,63,0.00,,,0.00,LWC V1.12 B30,2013-02-23 21:07:00,
2013-02-23 13:13:00,42.3,30.5,29.93,SE,135,7.8,13.6,63,0.00,,,0.00,LWC V1.12 B30,2013-02-23 21:13:00,
2013-02-23 13:19:00,42.6,30.8,29.93,SSW,202,2.9,3.6,63,0.00,,,0.00,LWC V1.12 B30,2013-02-23 21:19:00,
2013-02-23 13:24:00,42.6,30.8,29.93,SSW,202,7.8,8.9,63,0.00,,,0.00,LWC V1.12 B30,2013-02-23 21:24:00,
2013-02-23 13:29:00,43.0,30.8,29.94,SW,225,0.0,0.0,62,0.00,,,0.00,LWC V1.12 B30,2013-02-23 21:29:00,
2013-02-23 13:34:00,43.0,30.4,29.94,SW,225,4.0,8.3,61,0.00,,,0.00,LWC V1.12 B30,2013-02-23 21:34:00,
2013-02-23 13:39:00,43.2,30.6,29.94,ESE,112,1.8,2.9,61,0.00,,,0.00,LWC V1.12 B30,2013-02-23 21:39:00,
2013-02-23 13:44:00,43.5,30.9,29.94,SSE,157,4.0,11.4,61,0.00,,,0.00,LWC V1.12 B30,2013-02-23 21:44:00,
2013-02-23 13:49:00,43.9,31.3,29.94,SSE,157,1.6,8.3,61,0.00,,,0.00,LWC V1.12 B30,2013-02-23 21:49:00,
2013-02-23 13:54:00,44.2,31.7,29.94,SSW,202,4.7,4.7,61,0.00,,,0.00,LWC V1.12 B30,2013-02-23 21:54:00,
2013-02-23 13:59:00,44.2,31.3,29.94,SW,225,2.0,6.5,59,0.00,,,0.00,LWC V1.12 B30,2013-02-23 21:59:00,
2013-02-23 14:04:00,44.4,30.6,29.94,SE,135,9.2,9.2,58,0.00,,,0.00,LWC V1.12 B30,2013-02-23 22:04:00,
2013-02-23 14:09:00,44.4,30.6,29.94,SSW,202,6.7,9.4,58,0.00,,,0.00,LWC V1.12 B30,2013-02-23 22:09:00,
2013-02-23 14:14:00,44.8,31.4,29.94,SW,225,4.5,8.7,59,0.00,,,0.00,LWC V1.12 B30,2013-02-23 22:14:00,
2013-02-23 14:19:00,45.0,31.1,29.94,South,180,5.4,7.6,58,0.00,,,0.00,LWC V1.12 B30,2013-02-23 22:19:00,
2013-02-23 14:24:00,44.4,29.7,29.95,SE,135,12.5,12.5,56,0.00,,,0.00,LWC V1.12 B30,2013-02-23 22:24:00,
2013-02-23 14:29:00,44.2,29.9,29.95,SSW,202,5.1,5.8,57,0.00,,,0.00,LWC V1.12 B30,2013-02-23 22:29:00,
2013-02-23 14:34:00,44.2,29.0,29.95,SSW,202,6.0,9.2,55,0.00,,,0.00,LWC V1.12 B30,2013-02-23 22:34:00,
2013-02-23 14:39:00,44.2,29.0,29.96,SSW,202,3.8,6.9,55,0.00,,,0.00,LWC V1.12 B30,2013-02-23 22:39:00,
2013-02-23 14:44:00,44.4,28.8,29.96,West,270,1.8,2.9,54,0.00,,,0.00,LWC V1.12 B30,2013-02-23 22:44:00,
2013-02-23 14:49:00,44.4,28.3,29.96,West,270,0.0,4.7,53,0.00,,,0.00,LWC V1.12 B30,2013-02-23 22:49:00,
2013-02-23 14:54:00,44.4,28.3,29.96,WNW,292,3.6,3.6,53,0.00,,,0.00,LWC V1.12 B30,2013-02-23 22:54:00,
2013-02-23 14:59:00,44.6,28.5,29.96,SSW,202,2.0,5.8,53,0.00,,,0.00,LWC V1.12 B30,2013-02-23 22:59:00,
2013-02-23 15:04:00,44.8,28.2,29.96,NNW,337,0.0,0.0,52,0.00,,,0.00,LWC V1.12 B30,2013-02-23 23:04:00,
2013-02-23 15:09:00,45.0,28.4,29.97,West,270,0.0,0.0,52,0.00,,,0.00,LWC V1.12 B30,2013-02-23 23:09:00,
2013-02-23 15:14:00,45.1,28.5,29.96,SSW,202,1.1,6.0,52,0.00,,,0.00,LWC V1.12 B30,2013-02-23 23:14:00,
2013-02-23 15:19:00,45.3,28.2,29.96,West,270,0.0,2.2,51,0.00,,,0.00,LWC V1.12 B30,2013-02-23 23:19:00,
2013-02-23 15:24:00,45.3,27.8,29.97,WSW,247,0.0,2.9,50,0.00,,,0.00,LWC V1.12 B30,2013-02-23 23:24:00,
2013-02-23 15:29:00,45.1,27.6,29.97,South,180,2.5,5.4,50,0.00,,,0.00,LWC V1.12 B30,2013-02-23 23:29:00,
2013-02-23 15:34:00,45.1,27.6,29.97,SSW,202,4.5,4.5,50,0.00,,,0.00,LWC V1.12 B30,2013-02-23 23:34:00,
2013-02-23 15:40:00,45.1,27.8,29.97,WSW,247,0.0,3.1,50,0.00,,,0.00,LWC V1.12 B30,2013-02-23 23:40:00,
2013-02-23 15:45:00,45.1,27.6,29.98,West,270,0.0,3.8,50,0.00,,,0.00,LWC V1.12 B30,2013-02-23 23:45:00,
2013-02-23 15:50:00,44.6,26.8,29.98,WSW,247,0.0,3.1,49,0.00,,,0.00,LWC V1.12 B30,2013-02-23 23:50:00,
2013-02-23 15:55:00,44.2,26.3,29.98,SW,225,0.0,2.2,49,0.00,,,0.00,LWC V1.12 B30,2013-02-23 23:55:00,
2013-02-23 16:00:00,44.1,26.1,29.98,SW,225,0.0,1.3,49,0.00,,,0.00,LWC V1.12 B30,2013-02-24 00:00:00,
2013-02-23 16:05:00,43.5,25.6,29.99,SSW,202,0.0,2.9,49,0.00,,,0.00,LWC V1.12 B30,2013-02-24 00:05:00,
2013-02-23 16:10:00,43.5,25.1,29.99,SW,225,0.0,5.6,48,0.00,,,0.00,LWC V1.12 B30,2013-02-24 00:10:00,
2013-02-23 16:15:00,43.2,25.3,29.99,SW,225,0.0,4.2,49,0.00,,,0.00,LWC V1.12 B30,2013-02-24 00:15:00,
2013-02-23 16:20:00,43.2,24.8,29.99,SW,225,2.5,3.6,48,0.00,,,0.00,LWC V1.12 B30,2013-02-24 00:20:00,
2013-02-23 16:25:00,42.6,24.8,29.99,WSW,247,2.0,28.4,49,0.00,,,0.00,LWC V1.12 B30,2013-02-24 00:25:00,
2013-02-23 16:30:00,42.4,24.6,29.99,SSW,202,1.3,2.9,49,0.00,,,0.00,LWC V1.12 B30,2013-02-24 00:30:00,
2013-02-23 16:35:00,42.1,24.3,30.00,SSW,202,4.7,4.7,49,0.00,,,0.00,LWC V1.12 B30,2013-02-24 00:35:00,
2013-02-23 16:40:00,41.7,23.9,30.00,SSW,202,3.1,4.7,49,0.00,,,0.00,LWC V1.12 B30,2013-02-24 00:40:00,
2013-02-23 16:45:00,41.5,24.3,30.00,SW,225,0.9,2.7,50,0.00,,,0.00,LWC V1.12 B30,2013-02-24 00:45:00,
2013-02-23 16:50:00,41.4,24.5,30.01,WSW,247,2.0,4.5,51,0.00,,,0.00,LWC V1.12 B30,2013-02-24 00:50:00,
2013-02-23 16:56:00,41.2,24.3,30.01,SW,225,1.6,5.6,51,0.00,,,0.00,LWC V1.12 B30,2013-02-24 00:56:00,
2013-02-23 17:01:00,41.0,24.6,30.01,WSW,247,0.0,0.0,52,0.00,,,0.00,LWC V1.12 B30,2013-02-24 01:01:00,
2013-02-23 17:06:00,40.8,24.9,30.01,SSW,202,2.9,2.9,53,0.00,,,0.00,LWC V1.12 B30,2013-02-24 01:06:00,
2013-02-23 17:11:00,40.8,24.9,30.02,SW,225,0.0,0.0,53,0.00,,,0.00,LWC V1.12 B30,2013-02-24 01:11:00,
2013-02-23 17:16:00,40.8,25.3,30.02,SW,225,0.0,0.0,54,0.00,,,0.00,LWC V1.12 B30,2013-02-24 01:16:00,
2013-02-23 17:21:00,40.6,25.2,30.02,WNW,292,0.0,1.8,54,0.00,,,0.00,LWC V1.12 B30,2013-02-24 01:21:00,
2013-02-23 17:26:00,40.5,25.0,30.03,NNW,337,0.0,1.3,54,0.00,,,0.00,LWC V1.12 B30,2013-02-24 01:26:00,
2013-02-23 17:31:00,40.1,25.1,30.03,North,0,4.2,5.8,55,0.00,,,0.00,LWC V1.12 B30,2013-02-24 01:31:00,
2013-02-23 17:36:00,39.9,25.4,30.04,NNE,22,4.5,6.3,56,0.00,,,0.00,LWC V1.12 B30,2013-02-24 01:36:00,
2013-02-23 17:41:00,39.7,25.6,30.04,NW,315,5.4,9.2,57,0.00,,,0.00,LWC V1.12 B30,2013-02-24 01:41:00,
2013-02-23 17:46:00,39.6,25.9,30.04,North,0,0.0,0.0,58,0.00,,,0.00,LWC V1.12 B30,2013-02-24 01:46:00,
2013-02-23 17:51:00,39.0,25.8,30.04,North,0,0.0,0.0,59,0.00,,,0.00,LWC V1.12 B30,2013-02-24 01:51:00,
2013-02-23 17:56:00,38.8,25.7,30.04,NE,45,0.0,0.0,59,0.00,,,0.00,LWC V1.12 B30,2013-02-24 01:56:00,
2013-02-23 18:01:00,38.5,25.3,30.04,NE,45,0.0,0.0,59,0.00,,,0.00,LWC V1.12 B30,2013-02-24 02:01:00,
2013-02-23 18:06:00,38.1,25.4,30.04,ESE,112,0.0,0.0,60,0.00,,,0.00,LWC V1.12 B30,2013-02-24 02:06:00,
2013-02-23 18:11:00,37.8,25.5,30.04,ESE,112,0.0,1.8,61,0.00,,,0.00,LWC V1.12 B30,2013-02-24 02:11:00,
2013-02-23 18:16:00,37.2,25.0,30.05,SE,135,0.0,0.0,61,0.00,,,0.00,LWC V1.12 B30,2013-02-24 02:16:00,
2013-02-23 18:21:00,36.7,24.9,30.05,SE,135,1.8,2.0,62,0.00,,,0.00,LWC V1.12 B30,2013-02-24 02:21:00,
2013-02-23 18:26:00,36.3,24.5,30.05,ESE,112,2.2,2.7,62,0.00,,,0.00,LWC V1.12 B30,2013-02-24 02:26:00,
2013-02-23 18:31:00,35.8,24.4,30.05,SE,135,0.0,1.8,63,0.00,,,0.00,LWC V1.12 B30,2013-02-24 02:31:00,
2013-02-23 18:36:00,35.4,24.4,30.05,SSE,157,1.3,1.6,64,0.00,,,0.00,LWC V1.12 B30,2013-02-24 02:36:00,
2013-02-23 18:41:00,35.2,24.6,30.05,SE,135,0.0,2.7,65,0.00,,,0.00,LWC V1.12 B30,2013-02-24 02:41:00,
2013-02-23 18:46:00,34.9,25.0,30.06,SSE,157,2.5,2.9,67,0.00,,,0.00,LWC V1.12 B30,2013-02-24 02:46:00,
2013-02-23 18:51:00,34.5,24.6,30.06,SSE,157,0.9,2.0,67,0.00,,,0.00,LWC V1.12 B30,2013-02-24 02:51:00,
2013-02-23 18:56:00,34.3,24.8,30.06,SSE,157,2.9,2.9,68,0.00,,,0.00,LWC V1.12 B30,2013-02-24 02:56:00,
2013-02-23 19:01:00,34.2,24.6,30.06,SSE,157,2.5,3.1,68,0.00,,,0.00,LWC V1.12 B30,2013-02-24 03:01:00,
2013-02-23 19:06:00,34.0,24.8,30.07,SSE,157,2.2,3.1,69,0.00,,,0.00,LWC V1.12 B30,2013-02-24 03:06:00,
2013-02-23 19:11:00,33.6,24.5,30.07,SE,135,2.7,3.1,69,0.00,,,0.00,LWC V1.12 B30,2013-02-24 03:11:00,
2013-02-23 19:16:00,33.6,24.8,30.07,SE,135,2.5,3.6,70,0.00,,,0.00,LWC V1.12 B30,2013-02-24 03:16:00,
2013-02-23 19:21:00,33.3,24.8,30.07,SE,135,3.8,4.0,71,0.00,,,0.00,LWC V1.12 B30,2013-02-24 03:21:00,
2013-02-23 19:26:00,32.9,24.5,30.07,SE,135,3.8,4.0,71,0.00,,,0.00,LWC V1.12 B30,2013-02-24 03:26:00,
2013-02-23 19:32:00,32.7,24.7,30.07,SE,135,2.5,3.1,72,0.00,,,0.00,LWC V1.12 B30,2013-02-24 03:32:00,
2013-02-23 19:37:00,32.5,24.5,30.07,SE,135,2.5,3.1,72,0.00,,,0.00,LWC V1.12 B30,2013-02-24 03:37:00,
2013-02-23 19:42:00,32.4,24.3,30.08,ESE,112,2.0,2.0,72,0.00,,,0.00,LWC V1.12 B30,2013-02-24 03:42:00,
2013-02-23 19:47:00,32.2,24.3,30.08,ESE,112,0.0,0.0,72,0.00,,,0.00,LWC V1.12 B30,2013-02-24 03:47:00,
2013-02-23 19:52:00,32.2,24.2,30.08,ESE,112,1.3,1.6,72,0.00,,,0.00,LWC V1.12 B30,2013-02-24 03:52:00,
2013-02-23 19:57:00,32.2,24.2,30.08,ESE,112,0.0,1.8,72,0.00,,,0.00,LWC V1.12 B30,2013-02-24 03:57:00,
2013-02-23 20:02:00,31.8,23.8,30.08,SE,135,2.7,2.7,72,0.00,,,0.00,LWC V1.12 B30,2013-02-24 04:02:00,
2013-02-23 20:07:00,31.6,24.0,30.08,SSE,157,2.2,3.4,73,0.00,,,0.00,LWC V1.12 B30,2013-02-24 04:07:00,
2013-02-23 20:12:00,31.6,24.0,30.08,SSE,157,3.1,3.1,73,0.00,,,0.00,LWC V1.12 B30,2013-02-24 04:12:00,
2013-02-23 20:17:00,31.5,23.8,30.08,SSE,157,3.6,4.5,73,0.00,,,0.00,LWC V1.12 B30,2013-02-24 04:17:00,
2013-02-23 20:22:00,31.3,23.9,30.08,SSE,157,2.7,3.6,74,0.00,,,0.00,LWC V1.12 B30,2013-02-24 04:22:00,
2013-02-23 20:27:00,31.3,24.3,30.08,SSE,157,3.6,4.9,75,0.00,,,0.00,LWC V1.12 B30,2013-02-24 04:27:00,
2013-02-23 20:32:00,31.1,24.1,30.09,SSE,157,4.0,4.5,75,0.00,,,0.00,LWC V1.12 B30,2013-02-24 04:32:00,
2013-02-23 20:37:00,31.1,24.1,30.09,SE,135,4.0,4.2,75,0.00,,,0.00,LWC V1.12 B30,2013-02-24 04:37:00,
2013-02-23 20:42:00,31.1,24.1,30.08,SE,135,1.3,2.9,75,0.00,,,0.00,LWC V1.12 B30,2013-02-24 04:42:00,
2013-02-23 20:47:00,31.1,23.8,30.08,SE,135,0.0,0.0,74,0.00,,,0.00,LWC V1.12 B30,2013-02-24 04:47:00,
2013-02-23 20:52:00,31.3,23.9,30.09,SE,135,0.0,0.0,74,0.00,,,0.00,LWC V1.12 B30,2013-02-24 04:52:00,
2013-02-23 20:57:00,31.3,23.9,30.09,SE,135,0.0,0.0,74,0.00,,,0.00,LWC V1.12 B30,2013-02-24 04:57:00,
2013-02-23 21:00:00,31.3,23.9,30.09,SE,135,0.0,14.1,74,0.00,,,0.00,LWC V1.12 B30,2013-02-24 05:00:00,
2013-02-23 21:03:00,31.3,23.9,30.10,SE,135,0.0,0.0,74,0.00,,,0.00,LWC V1.12 B30,2013-02-24 05:03:00,
2013-02-23 21:08:00,31.1,23.8,30.10,SE,135,0.0,0.0,74,0.00,,,0.00,LWC V1.12 B30,2013-02-24 05:08:00,
2013-02-23 21:13:00,31.1,23.8,30.10,SE,135,0.0,0.0,74,0.00,,,0.00,LWC V1.12 B30,2013-02-24 05:13:00,
2013-02-23 21:18:00,30.9,23.6,30.10,ESE,112,0.0,0.0,74,0.00,,,0.00,LWC V1.12 B30,2013-02-24 05:18:00,
2013-02-23 21:23:00,30.9,23.6,30.11,ESE,112,0.0,0.0,74,0.00,,,0.00,LWC V1.12 B30,2013-02-24 05:23:00,
2013-02-23 21:28:00,30.9,23.6,30.11,ESE,112,0.0,0.0,74,0.00,,,0.00,LWC V1.12 B30,2013-02-24 05:28:00,
2013-02-23 21:33:00,30.9,23.6,30.11,ESE,112,0.0,0.0,74,0.00,,,0.00,LWC V1.12 B30,2013-02-24 05:33:00,
2013-02-23 21:38:00,30.9,23.6,30.12,ESE,112,0.0,0.0,74,0.00,,,0.00,LWC V1.12 B30,2013-02-24 05:38:00,
2013-02-23 21:43:00,30.7,23.4,30.12,SE,135,0.0,0.0,74,0.00,,,0.00,LWC V1.12 B30,2013-02-24 05:43:00,
2013-02-23 21:48:00,30.7,23.7,30.12,SSE,157,0.0,1.6,75,0.00,,,0.00,LWC V1.12 B30,2013-02-24 05:48:00,
2013-02-23 21:53:00,30.6,23.5,30.12,SE,135,0.0,0.0,75,0.00,,,0.00,LWC V1.12 B30,2013-02-24 05:53:00,
2013-02-23 21:58:00,30.4,23.4,30.12,ESE,112,0.0,0.0,75,0.00,,,0.00,LWC V1.12 B30,2013-02-24 05:58:00,
2013-02-23 22:03:00,30.0,22.7,30.12,SE,135,2.2,2.2,74,0.00,,,0.00,LWC V1.12 B30,2013-02-24 06:03:00,
2013-02-23 22:08:00,29.8,22.8,30.12,ESE,112,2.5,2.9,75,0.00,,,0.00,LWC V1.12 B30,2013-02-24 06:08:00,
2013-02-23 22:13:00,29.5,22.8,30.12,SSE,157,2.2,4.0,76,0.00,,,0.00,LWC V1.12 B30,2013-02-24 06:13:00,
2013-02-23 22:18:00,29.5,23.1,30.12,SE,135,2.2,4.0,77,0.00,,,0.00,LWC V1.12 B30,2013-02-24 06:18:00,
2013-02-23 22:24:00,29.5,23.1,30.12,SSE,157,3.1,3.1,77,0.00,,,0.00,LWC V1.12 B30,2013-02-24 06:24:00,
2013-02-23 22:29:00,29.5,23.1,30.12,SE,135,4.2,4.2,77,0.00,,,0.00,LWC V1.12 B30,2013-02-24 06:29:00,
2013-02-23 22:34:00,29.5,23.1,30.12,SSE,157,0.0,0.0,77,0.00,,,0.00,LWC V1.12 B30,2013-02-24 06:34:00,
2013-02-23 22:39:00,29.5,23.1,30.12,SE,135,0.0,0.0,77,0.00,,,0.00,LWC V1.12 B30,2013-02-24 06:39:00,
2013-02-23 22:44:00,29.3,22.9,30.12,SE,135,0.0,0.0,77,0.00,,,0.00,LWC V1.12 B30,2013-02-24 06:44:00,
2013-02-23 22:49:00,29.1,22.8,30.12,SE,135,0.0,0.0,77,0.00,,,0.00,LWC V1.12 B30,2013-02-24 06:49:00,
2013-02-23 22:54:00,29.1,22.8,30.12,SE,135,2.2,2.2,77,0.00,,,0.00,LWC V1.12 B30,2013-02-24 06:54:00,
2013-02-23 22:59:00,29.1,22.8,30.12,SE,135,1.3,2.2,77,0.00,,,0.00,LWC V1.12 B30,2013-02-24 06:59:00,
2013-02-23 23:04:00,28.9,22.6,30.12,SE,135,1.1,1.3,77,0.00,,,0.00,LWC V1.12 B30,2013-02-24 07:04:00,
2013-02-23 23:09:00,28.9,22.6,30.12,SE,135,0.0,0.0,77,0.00,,,0.00,LWC V1.12 B30,2013-02-24 07:09:00,
2013-02-23 23:14:00,28.8,22.4,30.13,SE,135,0.7,2.0,77,0.00,,,0.00,LWC V1.12 B30,2013-02-24 07:14:00,
2013-02-23 23:19:00,28.8,22.4,30.12,SSE,157,0.0,0.0,77,0.00,,,0.00,LWC V1.12 B30,2013-02-24 07:19:00,
2013-02-23 23:24:00,28.6,22.2,30.13,SSE,157,2.0,2.9,77,0.00,,,0.00,LWC V1.12 B30,2013-02-24 07:24:00,
2013-02-23 23:29:00,28.6,22.5,30.12,SSE,157,3.1,3.1,78,0.00,,,0.00,LWC V1.12 B30,2013-02-24 07:29:00,
2013-02-23 23:34:00,28.8,22.7,30.13,SSE,157,2.7,3.8,78,0.00,,,0.00,LWC V1.12 B30,2013-02-24 07:34:00,
2013-02-23 23:39:00,28.9,22.9,30.12,SSE,157,4.5,5.1,78,0.00,,,0.00,LWC V1.12 B30,2013-02-24 07:39:00,
2013-02-23 23:44:00,29.1,23.4,30.12,SSE,157,3.8,8.1,79,0.00,,,0.00,LWC V1.12 B30,2013-02-24 07:44:00,
2013-02-23 23:50:00,29.3,23.6,30.12,SSE,157,11.6,11.6,79,0.00,,,0.00,LWC V1.12 B30,2013-02-24 07:50:00,
2013-02-23 23:55:00,29.7,23.9,30.13,SSW,202,6.3,9.6,79,0.00,,,0.00,LWC V1.12 B30,2013-02-24 07:55:00,